TAF Text Data
IDs:
Format:
Raw Decoded Include METAR

Data at: 1013 UTC 24 Jan 2019

KOAJ 240521Z 2406/2506 17013G23KT P6SM SCT080
  FM240900 18014G20KT 6SM SHRA OVC030 WS020/19045KT
  FM241200 18016G22KT 5SM SHRA BR SCT007 OVC015 WS020/20055KT
  FM241600 21016G25KT 5SM SHRA BR OVC025
  FM241800 25012G18KT P6SM BKN040
  FM242300 29007KT P6SM SCT070 AMD LTD TO CLD VIS AND WIND